createdAt,value
2022-08-25T00:00:14.096Z,6.57
2022-08-25T00:02:41.562Z,7.70
2022-08-25T00:05:24.004Z,5.22
2022-08-25T00:07:50.647Z,5.65
2022-08-25T00:10:17.321Z,11.05
2022-08-25T00:12:43.992Z,5.10
2022-08-25T00:15:11.171Z,4.85
2022-08-25T00:17:37.768Z,8.38
2022-08-25T00:20:05.882Z,6.18
2022-08-25T00:22:32.520Z,8.48
2022-08-25T00:24:59.057Z,8.23
2022-08-25T00:27:25.957Z,7.13
2022-08-25T00:29:52.571Z,4.75
2022-08-25T00:32:19.695Z,6.95
2022-08-25T00:34:46.896Z,8.93
2022-08-25T00:37:13.636Z,5.43
2022-08-25T00:39:40.529Z,5.05
2022-08-25T00:42:15.054Z,5.15
2022-08-25T00:44:44.039Z,5.88
2022-08-25T00:47:11.034Z,7.07
2022-08-25T00:53:30.879Z,7.50
2022-08-25T00:55:58.979Z,5.63
2022-08-25T00:58:31.094Z,5.75
2022-08-25T01:00:59.002Z,6.93
2022-08-25T01:03:32.972Z,6.75
2022-08-25T01:06:03.151Z,6.28
2022-08-25T01:08:32.335Z,8.93
2022-08-25T01:11:04.914Z,7.45
2022-08-25T01:13:40.456Z,5.38
2022-08-25T01:16:07.590Z,5.40
2022-08-25T01:18:56.130Z,9.32
2022-08-25T01:21:25.978Z,5.55
2022-08-25T01:23:53.105Z,6.80
2022-08-25T01:26:28.308Z,8.15
2022-08-25T01:29:17.761Z,6.68
2022-08-25T01:31:45.198Z,5.88
2022-08-25T01:34:13.529Z,7.72
2022-08-25T01:36:42.467Z,7.43
2022-08-25T01:39:09.651Z,7.10
2022-08-25T01:42:03.163Z,10.60
2022-08-25T01:44:30.646Z,7.07
2022-08-25T01:46:57.379Z,12.20
2022-08-25T01:49:24.119Z,8.57
2022-08-25T01:52:00.302Z,6.80
2022-08-25T01:54:26.907Z,6.38
2022-08-25T01:56:53.493Z,7.93
2022-08-25T01:59:24.341Z,7.93
2022-08-25T02:01:51.956Z,8.05
2022-08-25T02:04:29.466Z,8.95
2022-08-25T02:06:56.273Z,5.65
2022-08-25T02:09:23.217Z,9.80
2022-08-25T02:11:49.997Z,7.95
2022-08-25T02:14:18.436Z,6.65
2022-08-25T02:16:48.525Z,6.43
2022-08-25T02:19:17.468Z,10.93
2022-08-25T02:21:44.957Z,7.20
2022-08-25T02:24:12.102Z,7.05
2022-08-25T02:26:46.328Z,6.50
2022-08-25T02:29:13.321Z,6.65
2022-08-25T02:31:40.541Z,6.40
2022-08-25T02:34:09.168Z,7.85
2022-08-25T02:36:37.412Z,9.43
2022-08-25T02:39:06.382Z,7.25
2022-08-25T02:41:33.700Z,9.27
2022-08-25T02:44:01.892Z,9.18
2022-08-25T02:46:29.203Z,8.00
2022-08-25T02:48:55.828Z,5.88
2022-08-25T02:51:24.964Z,9.32
2022-08-25T02:53:51.963Z,9.55
2022-08-25T02:56:26.631Z,7.22
2022-08-25T02:58:53.367Z,10.73
2022-08-25T03:01:22.080Z,6.30
2022-08-25T03:03:55.666Z,11.15
2022-08-25T03:06:24.356Z,9.85
2022-08-25T03:08:52.157Z,13.25
2022-08-25T03:11:18.998Z,9.75
2022-08-25T03:13:46.123Z,15.00
2022-08-25T03:16:13.040Z,8.73
2022-08-25T03:18:42.137Z,11.38
2022-08-25T03:21:12.949Z,11.10
2022-08-25T03:23:41.225Z,8.68
2022-08-25T03:26:26.471Z,9.02
2022-08-25T03:28:55.568Z,16.40
2022-08-25T03:31:23.600Z,9.57
2022-08-25T03:33:53.293Z,6.97
2022-08-25T03:36:20.034Z,13.32
2022-08-25T03:38:46.732Z,8.05
2022-08-25T03:41:22.151Z,8.45
2022-08-25T03:43:49.805Z,10.30
2022-08-25T03:46:22.315Z,8.48
2022-08-25T03:48:49.354Z,9.93
2022-08-25T03:51:34.234Z,8.18
2022-08-25T03:54:02.308Z,10.02
2022-08-25T03:56:29.138Z,13.15
2022-08-25T03:58:56.116Z,6.35
2022-08-25T04:01:23.785Z,10.43
2022-08-25T04:03:50.842Z,11.15
2022-08-25T04:06:21.824Z,8.68
2022-08-25T04:08:48.883Z,9.23
2022-08-25T04:11:18.086Z,11.02
2022-08-25T04:13:48.937Z,10.07
2022-08-25T04:16:30.613Z,6.70
2022-08-25T04:18:59.243Z,7.05
2022-08-25T04:21:29.572Z,10.35
2022-08-25T04:23:57.148Z,10.45
2022-08-25T04:26:27.369Z,8.82
2022-08-25T04:28:54.881Z,7.82
2022-08-25T04:31:22.250Z,11.50
2022-08-25T04:33:49.010Z,14.00
2022-08-25T04:36:17.614Z,6.97
2022-08-25T04:38:45.297Z,14.20
2022-08-25T04:41:13.910Z,7.35
2022-08-25T04:43:42.116Z,14.25
2022-08-25T04:46:14.746Z,6.25
2022-08-25T04:48:47.944Z,8.93
2022-08-25T04:51:18.053Z,8.90
2022-08-25T04:53:44.916Z,7.63
2022-08-25T04:56:15.310Z,8.07
2022-08-25T04:58:42.073Z,7.25
2022-08-25T05:01:18.661Z,9.25
2022-08-25T05:03:47.668Z,6.45
2022-08-25T05:06:16.274Z,9.75
2022-08-25T05:08:45.728Z,8.90
2022-08-25T05:11:14.891Z,6.35
2022-08-25T05:13:43.082Z,7.85
2022-08-25T05:16:11.367Z,9.20
2022-08-25T05:18:39.033Z,15.23
2022-08-25T05:21:08.819Z,11.18
2022-08-25T05:23:36.196Z,12.73
2022-08-25T05:26:14.452Z,10.68
2022-08-25T05:28:43.178Z,9.35
2022-08-25T05:31:12.899Z,10.32
2022-08-25T05:33:40.971Z,7.53
2022-08-25T05:36:10.062Z,10.32
2022-08-25T05:38:37.924Z,12.15
2022-08-25T05:41:08.226Z,8.90
2022-08-25T05:43:36.155Z,17.48
2022-08-25T05:46:02.834Z,13.40
2022-08-25T05:48:29.622Z,10.63
2022-08-25T05:50:58.990Z,19.70
2022-08-25T05:53:27.323Z,20.27
2022-08-25T05:55:59.283Z,11.88
2022-08-25T05:58:30.711Z,11.77
2022-08-25T06:01:18.971Z,16.52
2022-08-25T06:03:47.630Z,18.02
2022-08-25T06:06:15.989Z,19.40
2022-08-25T06:08:44.267Z,10.60
2022-08-25T06:11:12.852Z,13.07
2022-08-25T06:13:40.210Z,24.00
2022-08-25T06:16:07.046Z,17.80
2022-08-25T06:18:33.814Z,16.95
2022-08-25T06:21:08.467Z,8.00
2022-08-25T06:23:36.579Z,14.77
2022-08-25T06:26:03.587Z,9.82
2022-08-25T06:28:30.221Z,15.35
2022-08-25T06:31:01.413Z,15.10
2022-08-25T06:33:28.188Z,12.55
2022-08-25T06:35:59.554Z,10.73
2022-08-25T06:38:27.138Z,8.70
2022-08-25T06:40:54.333Z,9.95
2022-08-25T06:43:21.813Z,9.55
2022-08-25T06:45:48.660Z,10.05
2022-08-25T06:48:16.051Z,6.25
2022-08-25T06:50:43.500Z,9.15
2022-08-25T06:53:10.460Z,4.25
2022-08-25T06:55:37.362Z,4.93
2022-08-25T06:58:04.871Z,6.05
2022-08-25T07:00:32.602Z,8.52
2022-08-25T07:03:01.346Z,6.32
2022-08-25T07:05:42.625Z,6.32
2022-08-25T07:08:12.045Z,3.97
2022-08-25T07:10:41.334Z,10.85
2022-08-25T07:13:14.108Z,8.38
2022-08-25T07:15:41.524Z,6.50
2022-08-25T07:18:09.949Z,7.80
2022-08-25T07:20:37.121Z,10.35
2022-08-25T07:23:04.073Z,9.77
2022-08-25T07:25:31.043Z,11.93
2022-08-25T07:27:59.042Z,8.52
2022-08-25T07:30:26.094Z,8.35
2022-08-25T07:33:04.654Z,6.10
2022-08-25T07:35:37.839Z,8.23
2022-08-25T07:38:06.852Z,9.32
2022-08-25T07:40:38.453Z,14.13
2022-08-25T07:43:10.411Z,8.10
2022-08-25T07:45:49.025Z,4.15
2022-08-25T07:48:19.719Z,9.35
2022-08-25T07:50:47.576Z,5.53
2022-08-25T07:53:15.816Z,8.93
2022-08-25T07:55:45.213Z,11.32
2022-08-25T07:58:13.849Z,12.13
2022-08-25T08:00:42.331Z,9.75
2022-08-25T08:03:12.968Z,3.85
2022-08-25T08:05:47.446Z,13.85
2022-08-25T08:08:16.434Z,6.88
2022-08-25T08:11:03.202Z,6.60
2022-08-25T08:13:35.739Z,7.45
2022-08-25T08:16:10.156Z,7.93
2022-08-25T08:18:38.460Z,6.03
2022-08-25T08:21:05.276Z,10.10
2022-08-25T08:23:31.816Z,6.30
2022-08-25T08:25:58.991Z,7.53
2022-08-25T08:28:27.881Z,7.05
2022-08-25T08:30:54.598Z,11.85
2022-08-25T08:33:24.247Z,6.05
2022-08-25T08:36:07.850Z,3.25
2022-08-25T08:38:38.503Z,3.47
2022-08-25T08:44:46.170Z,10.15
2022-08-25T08:47:22.516Z,10.88
2022-08-25T08:49:49.085Z,4.53
2022-08-25T08:52:19.531Z,6.95
2022-08-25T08:54:53.540Z,8.65
2022-08-25T08:57:26.079Z,4.63
2022-08-25T08:59:59.804Z,7.37
2022-08-25T09:02:39.364Z,3.40
2022-08-25T09:05:21.122Z,4.97
2022-08-25T09:07:49.356Z,6.47
2022-08-25T09:10:24.442Z,2.20
2022-08-25T09:13:29.388Z,3.40
2022-08-25T09:16:33.747Z,7.78
2022-08-25T09:19:25.616Z,7.18
2022-08-25T09:22:01.424Z,5.03
2022-08-25T09:24:49.949Z,5.47
2022-08-25T09:27:45.107Z,7.32
2022-08-25T09:30:18.406Z,3.28
2022-08-25T09:32:54.133Z,2.83
2022-08-25T09:35:26.193Z,3.00
2022-08-25T09:38:08.013Z,5.80
2022-08-25T09:40:39.086Z,2.38
2022-08-25T09:43:29.576Z,2.97
2022-08-25T09:46:20.926Z,4.30
2022-08-25T09:48:57.484Z,7.53
2022-08-25T09:51:42.387Z,6.78
2022-08-25T09:54:12.923Z,2.80
2022-08-25T09:57:09.290Z,6.65
2022-08-25T09:59:37.620Z,3.38
2022-08-25T10:02:23.944Z,3.95
2022-08-25T10:04:50.693Z,2.78
2022-08-25T10:07:28.433Z,5.75
2022-08-25T10:09:59.608Z,2.40
2022-08-25T10:12:36.523Z,2.72
2022-08-25T10:15:30.131Z,5.00
2022-08-25T10:18:18.283Z,1.30
2022-08-25T10:21:01.692Z,3.40
2022-08-25T10:23:28.988Z,3.20
2022-08-25T10:26:04.522Z,5.90
2022-08-25T10:28:43.056Z,3.92
2022-08-25T10:31:12.681Z,2.95
2022-08-25T10:34:01.286Z,7.18
2022-08-25T10:36:47.051Z,7.18
2022-08-25T10:39:33.928Z,2.88
2022-08-25T10:42:18.378Z,3.28
2022-08-25T10:45:21.780Z,3.33
2022-08-25T10:48:16.658Z,2.00
2022-08-25T10:50:45.964Z,7.05
2022-08-25T10:53:27.620Z,2.72
2022-08-25T10:56:12.762Z,3.63
2022-08-25T10:58:54.496Z,5.28
2022-08-25T11:01:45.305Z,2.95
2022-08-25T11:04:21.466Z,2.45
2022-08-25T11:07:09.381Z,2.20
2022-08-25T11:09:43.264Z,2.70
2022-08-25T11:12:22.627Z,4.15
2022-08-25T11:14:54.266Z,3.65
2022-08-25T11:17:25.528Z,5.40
2022-08-25T11:19:59.156Z,1.40
2022-08-25T11:22:45.479Z,2.15
2022-08-25T11:25:25.610Z,2.88
2022-08-25T11:28:05.392Z,4.32
2022-08-25T11:30:32.727Z,5.88
2022-08-25T11:33:00.059Z,5.25
2022-08-25T11:35:37.121Z,5.55
2022-08-25T11:38:31.915Z,1.95
2022-08-25T11:41:20.423Z,5.57
2022-08-25T11:43:48.075Z,3.40
2022-08-25T11:46:49.538Z,3.90
2022-08-25T11:49:44.201Z,4.97
2022-08-25T11:52:34.653Z,8.77
2022-08-25T11:55:22.959Z,3.35
2022-08-25T11:57:53.536Z,3.42
2022-08-25T12:00:42.958Z,5.97
2022-08-25T12:03:37.235Z,6.25
2022-08-25T12:06:18.989Z,2.35
2022-08-25T12:09:13.770Z,3.17
2022-08-25T12:11:55.569Z,1.83
2022-08-25T12:14:22.084Z,2.97
2022-08-25T12:16:51.723Z,4.22
2022-08-25T12:19:36.971Z,4.25
2022-08-25T12:22:04.682Z,2.58
2022-08-25T12:24:48.237Z,3.55
2022-08-25T12:27:36.592Z,8.65
2022-08-25T12:30:21.210Z,4.43
2022-08-25T12:33:06.589Z,1.98
2022-08-25T12:35:53.424Z,6.80
2022-08-25T12:38:52.134Z,7.60
2022-08-25T12:41:26.223Z,8.43
2022-08-25T12:43:54.699Z,2.05
2022-08-25T12:46:27.742Z,6.78
2022-08-25T12:49:12.665Z,4.22
2022-08-25T12:51:54.222Z,3.85
2022-08-25T12:54:24.216Z,4.95
2022-08-25T12:57:01.894Z,4.68
2022-08-25T12:59:45.776Z,4.15
2022-08-25T13:02:49.678Z,5.50
2022-08-25T13:05:58.400Z,13.82
2022-08-25T13:08:47.956Z,3.50
2022-08-25T13:11:18.107Z,5.38
2022-08-25T13:14:26.875Z,3.92
2022-08-25T13:16:58.741Z,3.80
2022-08-25T13:19:35.040Z,4.17
2022-08-25T13:22:15.904Z,5.75
2022-08-25T13:24:45.098Z,5.72
2022-08-25T13:27:26.865Z,6.30
2022-08-25T13:29:56.559Z,2.80
2022-08-25T13:32:35.290Z,5.90
2022-08-25T13:35:15.377Z,4.57
2022-08-25T13:37:44.476Z,2.78
2022-08-25T13:40:24.818Z,4.30
2022-08-25T13:43:05.828Z,6.20
2022-08-25T13:45:41.491Z,2.55
2022-08-25T13:48:22.529Z,2.17
2022-08-25T13:50:52.001Z,5.65
2022-08-25T13:53:30.517Z,3.88
2022-08-25T13:56:03.318Z,2.38
2022-08-25T13:58:44.915Z,2.38
2022-08-25T14:01:23.123Z,5.18
2022-08-25T14:04:33.547Z,8.32
2022-08-25T14:07:25.822Z,7.03
2022-08-25T14:10:05.908Z,4.07
2022-08-25T14:12:47.608Z,5.00
2022-08-25T14:15:17.219Z,5.55
2022-08-25T14:20:28.971Z,2.70
2022-08-25T14:22:59.352Z,2.90
2022-08-25T14:25:28.321Z,2.75
2022-08-25T14:28:08.119Z,2.95
2022-08-25T14:30:43.518Z,3.92
2022-08-25T14:33:14.601Z,2.85
2022-08-25T14:35:45.041Z,3.97
2022-08-25T14:38:11.896Z,4.57
2022-08-25T14:40:39.680Z,5.07
2022-08-25T14:43:09.546Z,6.85
2022-08-25T14:45:39.987Z,5.70
2022-08-25T14:48:14.267Z,2.80
2022-08-25T14:50:42.338Z,4.40
2022-08-25T14:53:11.465Z,4.13
2022-08-25T14:55:38.954Z,2.60
2022-08-25T14:58:07.297Z,3.15
2022-08-25T15:00:37.680Z,5.43
2022-08-25T15:03:04.773Z,2.95
2022-08-25T15:05:31.958Z,3.47
2022-08-25T15:08:17.141Z,4.05
2022-08-25T15:10:44.282Z,2.50
2022-08-25T15:13:11.067Z,6.15
2022-08-25T15:15:52.537Z,6.43
2022-08-25T15:18:21.044Z,4.53
2022-08-25T15:20:49.990Z,2.72
2022-08-25T15:23:20.714Z,2.88
2022-08-25T15:25:52.820Z,5.88
2022-08-25T15:28:21.938Z,6.50
2022-08-25T15:30:48.726Z,3.50
2022-08-25T15:33:15.416Z,4.13
2022-08-25T15:35:42.104Z,4.07
2022-08-25T15:38:10.150Z,3.13
2022-08-25T15:40:42.478Z,2.05
2022-08-25T15:43:09.284Z,2.20
2022-08-25T15:45:36.555Z,8.27
2022-08-25T15:48:06.967Z,4.05
2022-08-25T15:50:36.722Z,5.57
2022-08-25T15:53:07.051Z,4.10
2022-08-25T15:55:39.331Z,6.40
2022-08-25T15:58:06.881Z,7.72
2022-08-25T16:00:35.378Z,8.48
2022-08-25T16:03:03.164Z,6.80
2022-08-25T16:05:30.114Z,5.15
2022-08-25T16:07:56.717Z,5.38
2022-08-25T16:10:23.758Z,7.53
2022-08-25T16:12:56.934Z,5.60
2022-08-25T16:15:28.777Z,5.05
2022-08-25T16:17:55.930Z,7.32
2022-08-25T16:20:24.337Z,12.65
2022-08-25T16:22:50.979Z,6.22
2022-08-25T16:25:18.241Z,4.03
2022-08-25T16:27:45.190Z,3.45
2022-08-25T16:30:16.819Z,7.60
2022-08-25T16:32:44.767Z,4.47
2022-08-25T16:35:11.666Z,4.47
2022-08-25T16:37:38.365Z,7.65
2022-08-25T16:40:08.084Z,7.35
2022-08-25T16:42:34.988Z,6.95
2022-08-25T16:45:01.653Z,11.75
2022-08-25T16:47:28.218Z,16.63
2022-08-25T16:49:55.106Z,17.55
2022-08-25T16:52:40.612Z,13.57
2022-08-25T16:55:14.385Z,9.82
2022-08-25T16:57:47.463Z,13.07
2022-08-25T17:00:17.599Z,20.38
2022-08-25T17:02:44.314Z,16.90
2022-08-25T17:05:12.489Z,16.50
2022-08-25T17:07:39.458Z,14.02
2022-08-25T17:10:07.214Z,13.77
2022-08-25T17:12:39.631Z,12.00
2022-08-25T17:15:07.493Z,16.35
2022-08-25T17:17:36.052Z,14.63
2022-08-25T17:20:04.606Z,9.00
2022-08-25T17:22:31.938Z,14.65
2022-08-25T17:24:59.321Z,11.48
2022-08-25T17:27:27.827Z,9.93
2022-08-25T17:29:54.688Z,15.00
2022-08-25T17:32:28.691Z,12.77
2022-08-25T17:34:57.310Z,10.23
2022-08-25T17:37:24.208Z,15.10
2022-08-25T17:39:50.805Z,13.40
2022-08-25T17:42:30.341Z,19.85
2022-08-25T17:44:57.189Z,17.60
2022-08-25T17:47:23.907Z,18.25
2022-08-25T17:49:50.479Z,16.52
2022-08-25T17:52:17.205Z,14.43
2022-08-25T17:54:43.862Z,16.50
2022-08-25T17:57:10.798Z,16.63
2022-08-25T17:59:40.524Z,21.38
2022-08-25T18:02:08.939Z,22.67
2022-08-25T18:04:37.963Z,20.55
2022-08-25T18:07:05.756Z,18.67
2022-08-25T18:09:32.767Z,18.33
2022-08-25T18:12:01.953Z,18.77
2022-08-25T18:14:30.297Z,16.25
2022-08-25T18:16:57.847Z,22.13
2022-08-25T18:19:24.494Z,19.65
2022-08-25T18:21:52.382Z,18.40
2022-08-25T18:24:19.775Z,18.77
2022-08-25T18:26:47.435Z,20.58
2022-08-25T18:29:14.200Z,24.38
2022-08-25T18:31:43.437Z,20.63
2022-08-25T18:34:11.800Z,26.80
2022-08-25T18:36:40.374Z,19.13
2022-08-25T18:39:28.069Z,22.88
2022-08-25T18:41:58.352Z,24.83
2022-08-25T18:44:25.020Z,21.65
2022-08-25T18:46:54.667Z,31.98
2022-08-25T18:49:22.099Z,25.48
2022-08-25T18:51:54.914Z,21.63
2022-08-25T18:54:23.754Z,19.42
2022-08-25T18:56:52.807Z,21.25
2022-08-25T18:59:23.760Z,23.00
2022-08-25T19:01:52.853Z,28.00
2022-08-25T19:07:13.733Z,26.50
2022-08-25T19:09:40.577Z,34.22
2022-08-25T19:12:22.256Z,26.25
2022-08-25T19:14:53.441Z,27.73
2022-08-25T19:17:21.105Z,34.03
2022-08-25T19:19:51.739Z,31.67
2022-08-25T19:22:38.561Z,32.72
2022-08-25T19:25:08.438Z,30.85
2022-08-25T19:27:36.294Z,30.42
2022-08-25T19:30:07.642Z,29.95
2022-08-25T19:32:41.821Z,30.75
2022-08-25T19:35:17.217Z,29.20
2022-08-25T19:37:44.806Z,27.30
2022-08-25T19:40:15.588Z,30.67
2022-08-25T19:45:13.408Z,32.03
2022-08-25T19:47:46.257Z,28.40
2022-08-25T19:52:44.506Z,23.13
2022-08-25T19:55:17.386Z,29.98
2022-08-25T19:57:44.306Z,29.02
2022-08-25T20:03:09.915Z,26.48
2022-08-25T20:05:37.704Z,25.65
2022-08-25T20:08:05.774Z,28.55
2022-08-25T20:10:39.431Z,22.20
2022-08-25T20:13:09.986Z,27.27
2022-08-25T20:15:37.214Z,29.15
2022-08-25T20:18:06.243Z,25.35
2022-08-25T20:20:35.485Z,28.42
2022-08-25T20:23:21.867Z,29.67
2022-08-25T20:25:50.203Z,30.60
2022-08-25T20:28:19.009Z,22.85
2022-08-25T20:30:46.011Z,24.58
2022-08-25T20:33:13.268Z,25.00
2022-08-25T20:35:48.331Z,28.75
2022-08-25T20:38:14.965Z,25.92
2022-08-25T20:40:43.775Z,23.42
2022-08-25T20:43:28.801Z,33.78
2022-08-25T20:46:02.713Z,29.38
2022-08-25T20:48:39.633Z,29.42
2022-08-25T20:51:07.973Z,31.55
2022-08-25T20:53:39.601Z,23.23
2022-08-25T20:56:09.849Z,22.77
2022-08-25T20:58:37.873Z,24.58
2022-08-25T21:01:19.809Z,24.23
2022-08-25T21:03:50.702Z,27.35
2022-08-25T21:09:16.476Z,28.73
2022-08-25T21:11:47.065Z,22.95
2022-08-25T21:17:33.615Z,28.77
2022-08-25T21:20:00.225Z,30.60
2022-08-25T21:22:27.659Z,25.58
2022-08-25T21:24:55.167Z,25.65
2022-08-25T21:27:24.433Z,25.98
2022-08-25T21:29:54.957Z,26.65
2022-08-25T21:32:23.630Z,26.35
2022-08-25T21:34:54.473Z,24.40
2022-08-25T21:37:21.732Z,23.80
2022-08-25T21:39:48.578Z,24.35
2022-08-25T21:42:15.175Z,26.05
2022-08-25T21:44:41.912Z,22.00
2022-08-25T21:47:09.129Z,25.45
2022-08-25T21:49:37.636Z,23.30
2022-08-25T21:52:04.674Z,19.05
2022-08-25T21:54:31.638Z,25.90
2022-08-25T21:57:05.380Z,22.40
2022-08-25T21:59:34.469Z,22.92
2022-08-25T22:02:05.472Z,18.13
2022-08-25T22:04:32.523Z,20.02
2022-08-25T22:06:59.776Z,19.23
2022-08-25T22:09:28.186Z,21.65
2022-08-25T22:11:55.644Z,20.40
2022-08-25T22:14:26.186Z,14.27
2022-08-25T22:16:54.268Z,18.90
2022-08-25T22:19:21.516Z,21.50
2022-08-25T22:21:50.349Z,23.60
2022-08-25T22:24:18.047Z,17.35
2022-08-25T22:26:47.780Z,14.25
2022-08-25T22:29:25.017Z,17.42
2022-08-25T22:31:59.465Z,14.50
2022-08-25T22:34:32.351Z,20.10
2022-08-25T22:37:03.864Z,14.40
2022-08-25T22:39:31.124Z,15.82
2022-08-25T22:41:59.118Z,15.93
2022-08-25T22:44:26.447Z,18.90
2022-08-25T22:46:53.525Z,14.05
2022-08-25T22:49:20.160Z,14.88
2022-08-25T22:51:47.678Z,14.85
2022-08-25T22:54:15.893Z,10.38
2022-08-25T22:56:42.773Z,13.98
2022-08-25T22:59:12.821Z,18.65
2022-08-25T23:01:43.759Z,15.35
2022-08-25T23:04:11.436Z,14.50
2022-08-25T23:06:39.530Z,14.25
2022-08-25T23:09:07.825Z,14.55
2022-08-25T23:11:38.579Z,15.23
2022-08-25T23:14:08.183Z,12.52
2022-08-25T23:16:34.808Z,18.05
2022-08-25T23:19:01.720Z,16.70
2022-08-25T23:21:47.609Z,16.83
2022-08-25T23:24:29.592Z,13.30
2022-08-25T23:26:57.931Z,14.43
2022-08-25T23:29:25.179Z,9.60
2022-08-25T23:31:51.966Z,9.32
2022-08-25T23:34:22.964Z,9.02
2022-08-25T23:36:49.519Z,11.13
2022-08-25T23:39:16.394Z,10.63
2022-08-25T23:41:43.359Z,11.38
2022-08-25T23:44:11.798Z,11.65
2022-08-25T23:46:44.658Z,17.38
2022-08-25T23:49:12.395Z,12.05
2022-08-25T23:51:41.117Z,11.13
2022-08-25T23:54:11.798Z,9.85
2022-08-25T23:56:42.265Z,9.30
2022-08-25T23:59:11.015Z,8.48
